Time;durP1;ratioP1;P1;durP2;ratioP2;P2;SDS_P1;SDS_P2;PMS_P1;PMS_P2;Temp;Humidity;BMP_temperature;BMP_pressure;BME280_temperature;BME280_humidity;BME280_pressure;Samples;Min_cycle;Max_cycle;Signal;HPM_P1;HPM_P2
2022/01/02 00:02:12;;;;;;;7.30;4.38;;;;;;;11.86;86.38;101688.88;4922960;29;20028;-74
2022/01/02 00:04:46;;;;;;;6.63;4.32;;;;;;;11.85;87.36;101687.16;4921928;28;20110;-74
2022/01/02 00:07:14;;;;;;;8.38;3.90;;;;;;;11.63;88.41;101683.25;4937894;28;20082;-74
2022/01/02 00:09:43;;;;;;;10.30;4.72;;;;;;;11.92;86.94;101691.13;4917891;28;20053;-73
2022/01/02 00:12:15;;;;;;;10.32;4.18;;;;;;;11.80;86.82;101687.47;4940090;28;20031;-74
2022/01/02 00:14:46;;;;;;;5.53;3.80;;;;;;;11.63;87.82;101704.78;4922007;28;20149;-74
2022/01/02 00:17:12;;;;;;;6.43;4.30;;;;;;;11.52;87.97;101707.38;4907112;29;20518;-73
2022/01/02 00:19:40;;;;;;;9.60;4.20;;;;;;;11.56;88.44;101724.97;4941078;28;20066;-74
2022/01/02 00:22:14;;;;;;;9.05;3.97;;;;;;;11.55;88.46;101736.72;4940874;28;20031;-72
2022/01/02 00:24:41;;;;;;;5.68;3.50;;;;;;;11.64;87.99;101735.25;4940592;28;20035;-74
2022/01/02 00:27:08;;;;;;;10.77;3.92;;;;;;;11.65;87.56;101743.19;4920901;29;20563;-75
2022/01/02 00:29:36;;;;;;;8.73;4.05;;;;;;;11.73;86.87;101757.97;4939639;28;20035;-73
2022/01/02 00:32:01;;;;;;;11.65;4.78;;;;;;;11.73;86.80;101745.34;4924824;29;20034;-74
2022/01/02 00:34:27;;;;;;;8.27;3.50;;;;;;;11.78;87.30;101745.91;4921689;28;20026;-75
2022/01/02 00:36:52;;;;;;;10.00;4.30;;;;;;;11.68;87.18;101744.81;4924822;29;20483;-74
2022/01/02 00:39:18;;;;;;;7.93;3.92;;;;;;;11.69;87.39;101741.16;4941914;28;20031;-73
2022/01/02 00:41:55;;;;;;;6.97;3.30;;;;;;;11.62;88.30;101740.72;4943000;29;20030;-74
2022/01/02 00:44:24;;;;;;;9.98;4.50;;;;;;;11.82;86.55;101723.22;4940447;28;20123;-73
2022/01/02 00:47:17;;;;;;;7.15;3.85;;;;;;;11.82;87.14;101717.84;4926449;29;20102;-74
2022/01/02 00:49:53;;;;;;;10.60;4.47;;;;;;;11.73;87.99;101702.31;4939930;28;20073;-72
2022/01/02 00:52:19;;;;;;;8.35;3.35;;;;;;;11.65;90.61;101702.84;4925837;29;20027;-75
2022/01/02 00:54:45;;;;;;;7.53;3.42;;;;;;;11.38;91.57;101714.53;4925536;29;20030;-72
2022/01/02 00:57:17;;;;;;;12.52;3.60;;;;;;;11.36;92.56;101697.63;4944956;28;20037;-74
2022/01/02 01:00:11;;;;;;;8.95;3.83;;;;;;;11.15;94.43;101701.75;4941182;28;20027;-74
2022/01/02 01:02:50;;;;;;;10.48;4.15;;;;;;;11.16;95.28;101709.72;4938926;28;20047;-73
2022/01/02 01:05:30;;;;;;;6.13;3.25;;;;;;;10.86;98.16;101705.38;4941619;29;20130;-75
2022/01/02 01:07:58;;;;;;;7.00;4.30;;;;;;;10.95;98.11;101714.69;4936084;28;20086;-74
2022/01/02 01:10:25;;;;;;;10.43;4.60;;;;;;;10.83;98.54;101702.06;4937893;28;20041;-72
2022/01/02 01:12:53;;;;;;;11.77;4.60;;;;;;;10.75;100.00;101716.84;4936102;28;20114;-73
2022/01/02 01:15:20;;;;;;;10.13;4.47;;;;;;;10.58;100.00;101700.97;4921313;28;20050;-74
2022/01/02 01:17:46;;;;;;;9.07;4.47;;;;;;;10.79;100.00;101704.09;4937179;28;20089;-73
2022/01/02 01:20:13;;;;;;;7.00;4.05;;;;;;;10.71;100.00;101691.16;4920566;29;20043;-74
2022/01/02 01:22:40;;;;;;;8.98;4.78;;;;;;;10.67;100.00;101702.19;4934468;28;20111;-74
2022/01/02 01:25:11;;;;;;;11.27;4.47;;;;;;;10.47;100.00;101688.22;4924298;28;20355;-74
2022/01/02 01:27:36;;;;;;;11.40;4.82;;;;;;;10.81;100.00;101688.75;4938143;28;20062;-74
2022/01/02 01:30:03;;;;;;;6.18;3.75;;;;;;;10.65;100.00;101687.03;4940598;28;20118;-74
2022/01/02 01:32:28;;;;;;;8.20;4.88;;;;;;;10.48;100.00;101672.00;4917555;29;20603;-74
2022/01/02 01:34:53;;;;;;;9.00;4.72;;;;;;;10.50;100.00;101682.66;4939409;28;20035;-74
2022/01/02 01:37:19;;;;;;;8.15;4.05;;;;;;;10.64;100.00;101665.66;4921240;29;20035;-74
2022/01/02 01:39:44;;;;;;;9.13;5.35;;;;;;;10.82;100.00;101673.47;4936213;28;20042;-74
2022/01/02 01:42:11;;;;;;;10.95;4.30;;;;;;;10.54;100.00;101676.13;4939768;28;20062;-73
2022/01/02 01:47:14;;;;;;;14.20;4.60;;;;;;;10.64;100.00;101660.28;4933958;28;20036;-74
2022/01/02 01:49:39;;;;;;;10.25;5.10;;;;;;;10.70;100.00;101661.69;4938437;28;20042;-73
2022/01/02 01:52:04;;;;;;;11.57;4.97;;;;;;;10.78;100.00;101652.16;4918395;29;20059;-73
2022/01/02 01:54:30;;;;;;;8.30;5.00;;;;;;;10.88;100.00;101647.03;4919687;28;20028;-73
2022/01/02 01:56:55;;;;;;;12.80;4.80;;;;;;;10.93;100.00;101644.06;4938233;28;20074;-73
2022/01/02 01:59:21;;;;;;;10.27;4.47;;;;;;;10.85;100.00;101647.28;4935294;28;20059;-75
2022/01/02 02:01:48;;;;;;;12.23;4.20;;;;;;;10.89;100.00;101643.41;4921380;29;20027;-75
2022/01/02 02:04:13;;;;;;;11.55;4.88;;;;;;;10.82;100.00;101647.47;4936403;28;20546;-74
2022/01/02 02:06:39;;;;;;;12.13;4.22;;;;;;;10.73;100.00;101624.75;4937377;29;20040;-71
2022/01/02 02:09:05;;;;;;;12.23;4.70;;;;;;;11.01;100.00;101624.75;4917990;29;20027;-72
2022/01/02 02:11:31;;;;;;;11.45;4.57;;;;;;;11.01;100.00;101628.28;4921551;28;20042;-72
2022/01/02 02:13:56;;;;;;;11.60;4.68;;;;;;;11.32;100.00;101604.69;4920364;28;20094;-73
2022/01/02 02:16:22;;;;;;;10.15;4.03;;;;;;;11.17;100.00;101605.75;4937306;28;20078;-71
2022/01/02 02:18:47;;;;;;;14.60;4.20;;;;;;;11.15;100.00;101602.31;4935054;28;20102;-74
2022/01/02 02:21:13;;;;;;;11.77;4.45;;;;;;;11.33;100.00;101594.81;4921603;29;20031;-73
2022/01/02 02:23:38;;;;;;;12.90;4.10;;;;;;;11.32;100.00;101595.78;4937496;28;20039;-74
2022/01/02 02:26:03;;;;;;;9.13;4.07;;;;;;;11.18;100.00;101602.97;4936194;28;20113;-74
2022/01/02 02:28:29;;;;;;;14.10;4.57;;;;;;;11.44;100.00;101603.00;4936289;28;20043;-71
2022/01/02 02:30:54;;;;;;;10.73;5.47;;;;;;;11.37;100.00;101593.66;4922017;28;22023;-74
2022/01/02 02:33:20;;;;;;;17.15;5.72;;;;;;;11.48;100.00;101580.31;4935229;28;20432;-74
2022/01/02 02:35:47;;;;;;;15.25;5.90;;;;;;;11.60;100.00;101570.50;4935966;28;20365;-73
2022/01/02 02:38:14;;;;;;;19.67;5.60;;;;;;;11.42;100.00;101567.28;4916753;29;20035;-72
2022/01/02 02:40:40;;;;;;;10.63;4.57;;;;;;;11.43;100.00;101547.50;4938068;28;20034;-72
2022/01/02 02:43:20;;;;;;;22.38;5.30;;;;;;;11.58;100.00;101555.47;4917620;29;20647;-73
2022/01/02 02:51:20;;;;;;;12.05;4.30;;;;;;;11.34;100.00;101557.06;4936115;28;19928;-74
2022/01/02 02:53:47;;;;;;;19.45;4.78;;;;;;;11.48;100.00;101544.50;4920538;29;20039;-73
2022/01/02 02:56:17;;;;;;;14.35;4.57;;;;;;;11.52;100.00;101548.69;4936224;28;20034;-73
2022/01/02 02:58:43;;;;;;;12.68;5.22;;;;;;;11.76;99.54;101539.84;4938523;28;20146;-72
2022/01/02 03:01:11;;;;;;;10.07;3.95;;;;;;;11.49;100.00;101533.63;4908483;29;20039;-73
2022/01/02 03:03:37;;;;;;;9.32;4.15;;;;;;;11.38;100.00;101528.16;4940154;28;20081;-73
2022/01/02 03:06:03;;;;;;;9.68;4.57;;;;;;;11.34;100.00;101538.25;4934251;28;20031;-73
2022/01/02 03:08:28;;;;;;;15.93;4.93;;;;;;;11.55;100.00;101530.50;4937500;28;20027;-74
2022/01/02 03:10:54;;;;;;;14.40;4.38;;;;;;;11.57;100.00;101525.00;4936999;28;20031;-72
2022/01/02 03:13:19;;;;;;;7.55;4.03;;;;;;;11.46;100.00;101519.53;4938124;28;20031;-73
2022/01/02 03:15:44;;;;;;;16.35;5.28;;;;;;;11.42;100.00;101513.50;4921381;29;20352;-73
2022/01/02 03:18:10;;;;;;;10.48;4.03;;;;;;;11.30;100.00;101519.75;4940384;28;20522;-73
2022/01/02 03:20:35;;;;;;;9.57;3.90;;;;;;;11.34;100.00;101526.66;4937343;28;20062;-73
2022/01/02 03:23:00;;;;;;;13.95;4.93;;;;;;;11.43;100.00;101517.06;4940927;28;20023;-74
2022/01/02 03:25:25;;;;;;;13.98;3.35;;;;;;;11.28;100.00;101517.16;4923856;29;20035;-74
2022/01/02 03:27:51;;;;;;;5.82;3.55;;;;;;;11.50;99.95;101524.59;4940215;28;20028;-74
2022/01/02 03:30:16;;;;;;;12.10;4.05;;;;;;;11.82;97.68;101526.81;4941274;28;23168;-74
2022/01/02 03:32:41;;;;;;;9.13;3.15;;;;;;;11.75;97.96;101528.22;4923439;28;20027;-73
2022/01/02 03:35:07;;;;;;;7.50;3.83;;;;;;;11.77;97.70;101534.34;4941680;28;20602;-72
2022/01/02 03:37:33;;;;;;;12.88;3.70;;;;;;;11.84;96.91;101506.03;4922255;28;20420;-75
2022/01/02 03:40:03;;;;;;;11.63;3.72;;;;;;;11.98;96.34;101515.78;4939646;28;20023;-73
2022/01/02 03:42:29;;;;;;;15.15;3.97;;;;;;;12.05;96.23;101512.69;4938964;28;20034;-74
2022/01/02 03:44:57;;;;;;;10.18;3.65;;;;;;;11.99;96.32;101517.53;4940813;28;20027;-73
2022/01/02 03:47:22;;;;;;;10.57;4.13;;;;;;;11.95;96.86;101513.31;4938315;28;20127;-73
2022/01/02 03:49:47;;;;;;;7.25;3.65;;;;;;;11.94;96.71;101525.06;4923273;29;20027;-72
2022/01/02 03:52:13;;;;;;;13.57;4.05;;;;;;;12.08;96.29;101504.34;4936926;28;20027;-73
2022/01/02 03:54:38;;;;;;;14.80;3.67;;;;;;;11.92;96.08;101505.47;4939181;28;20737;-73
2022/01/02 03:57:04;;;;;;;13.52;3.42;;;;;;;11.77;97.42;101504.75;4922036;28;20386;-73
2022/01/02 03:59:29;;;;;;;13.35;4.63;;;;;;;11.97;96.71;101503.31;4919191;29;20063;-74
2022/01/02 04:01:54;;;;;;;10.90;4.60;;;;;;;11.98;96.21;101509.53;4940085;28;20113;-72
2022/01/02 04:04:20;;;;;;;13.48;3.90;;;;;;;11.38;99.87;101512.03;4924487;28;20601;-72
2022/01/02 04:06:45;;;;;;;10.52;4.25;;;;;;;11.29;100.00;101494.69;4936653;28;20023;-72
2022/01/02 04:09:10;;;;;;;11.30;4.97;;;;;;;11.50;100.00;101497.69;4941986;28;20043;-73
2022/01/02 04:11:36;;;;;;;18.05;5.60;;;;;;;11.21;100.00;101489.00;4941185;28;20078;-73
2022/01/02 04:14:01;;;;;;;11.45;5.63;;;;;;;11.34;100.00;101476.41;4941086;28;20030;-74
2022/01/02 04:16:26;;;;;;;10.50;5.13;;;;;;;11.30;100.00;101479.44;4938408;28;20031;-71
2022/01/02 04:18:52;;;;;;;18.42;6.15;;;;;;;11.69;99.21;101474.84;4941961;28;20034;-73
2022/01/02 04:21:17;;;;;;;9.82;5.30;;;;;;;11.15;100.00;101478.69;4917202;29;20028;-73
2022/01/02 04:23:43;;;;;;;15.23;4.40;;;;;;;10.92;100.00;101484.69;4940967;28;20546;-72
2022/01/02 04:26:08;;;;;;;15.40;5.32;;;;;;;11.08;100.00;101470.19;4939210;28;20066;-73
2022/01/02 04:28:33;;;;;;;9.77;4.30;;;;;;;11.16;100.00;101475.03;4938505;28;20468;-74
2022/01/02 04:30:59;;;;;;;14.25;4.70;;;;;;;11.22;100.00;101471.91;4939026;28;20498;-73
2022/01/02 04:33:24;;;;;;;10.90;4.38;;;;;;;10.73;100.00;101463.59;4936667;28;20038;-73
2022/01/02 04:35:49;;;;;;;10.88;4.65;;;;;;;11.09;100.00;101462.03;4938030;28;20339;-73
2022/01/02 04:38:15;;;;;;;16.65;5.57;;;;;;;11.18;100.00;101465.88;4940021;28;20043;-72
2022/01/02 04:40:41;;;;;;;17.02;4.80;;;;;;;10.90;100.00;101461.59;4940921;28;20075;-72
2022/01/02 04:43:06;;;;;;;10.38;4.45;;;;;;;10.69;100.00;101470.16;4920914;29;20098;-73
2022/01/02 04:45:32;;;;;;;12.55;5.57;;;;;;;10.73;100.00;101450.16;4940976;28;20487;-72
2022/01/02 04:47:57;;;;;;;6.97;4.07;;;;;;;10.74;100.00;101459.09;4939492;28;20039;-73
2022/01/02 04:50:23;;;;;;;16.52;5.13;;;;;;;10.70;100.00;101454.91;4938877;28;20051;-74
2022/01/02 04:52:48;;;;;;;11.40;4.13;;;;;;;11.03;100.00;101451.69;4934434;28;20035;-70
2022/01/02 04:55:13;;;;;;;13.85;4.95;;;;;;;10.97;100.00;101446.78;4935017;28;20126;-74
2022/01/02 04:57:39;;;;;;;14.07;5.53;;;;;;;11.17;100.00;101450.72;4938289;28;20027;-72
2022/01/02 05:00:06;;;;;;;18.73;5.95;;;;;;;11.04;100.00;101434.59;4935616;28;20110;-74
2022/01/02 05:02:31;;;;;;;14.40;5.00;;;;;;;10.81;100.00;101433.53;4920708;28;20059;-73
2022/01/02 05:04:56;;;;;;;13.95;4.72;;;;;;;10.83;100.00;101433.44;4920642;29;20134;-73
2022/01/02 05:07:22;;;;;;;11.63;4.43;;;;;;;10.83;100.00;101430.75;4937289;28;20031;-72
2022/01/02 05:09:47;;;;;;;12.52;4.80;;;;;;;10.91;100.00;101420.31;4938661;29;20118;-73
2022/01/02 05:12:13;;;;;;;16.42;5.75;;;;;;;11.05;100.00;101404.06;4938413;28;20550;-73
2022/01/02 05:14:38;;;;;;;13.20;5.78;;;;;;;11.05;100.00;101408.59;4940358;28;20439;-71
2022/01/02 05:17:03;;;;;;;14.20;5.72;;;;;;;11.00;100.00;101400.84;4921256;29;20058;-74
2022/01/02 05:19:29;;;;;;;10.88;5.10;;;;;;;10.71;100.00;101406.47;4924548;28;20755;-73
2022/01/02 05:21:54;;;;;;;9.70;5.15;;;;;;;10.72;100.00;101388.50;4939442;28;20031;-74
2022/01/02 05:24:19;;;;;;;11.93;4.80;;;;;;;10.80;100.00;101392.38;4939970;28;20081;-74
2022/01/02 05:26:45;;;;;;;20.75;6.93;;;;;;;10.65;100.00;101382.72;4937336;28;20027;-71
2022/01/02 05:29:10;;;;;;;12.07;5.82;;;;;;;10.85;100.00;101375.97;4938414;28;20427;-73
2022/01/02 05:31:35;;;;;;;11.60;5.15;;;;;;;10.70;100.00;101361.78;4937937;28;20090;-73
2022/01/02 05:34:01;;;;;;;10.40;4.88;;;;;;;10.49;100.00;101373.03;4939977;28;20035;-72
2022/01/02 05:36:26;;;;;;;15.63;5.60;;;;;;;10.73;100.00;101358.84;4936128;28;20114;-72
2022/01/02 05:38:51;;;;;;;15.27;5.82;;;;;;;10.47;100.00;101334.69;4940001;28;20031;-72
2022/01/02 05:41:16;;;;;;;13.02;6.00;;;;;;;10.93;100.00;101357.44;4940342;28;20383;-73
2022/01/02 05:43:42;;;;;;;10.55;4.53;;;;;;;10.44;100.00;101353.72;4938640;28;20050;-74
2022/01/02 05:46:07;;;;;;;12.82;5.68;;;;;;;10.70;100.00;101353.72;4938499;28;20031;-73
2022/01/02 05:48:36;;;;;;;19.63;4.85;;;;;;;10.67;100.00;101353.06;4931145;28;20035;-74
2022/01/02 05:51:02;;;;;;;8.00;4.18;;;;;;;10.70;100.00;101348.34;4934945;28;20070;-73
2022/01/02 05:53:29;;;;;;;8.02;3.63;;;;;;;10.62;100.00;101337.28;4921103;28;20115;-72
2022/01/02 05:55:54;;;;;;;14.25;5.80;;;;;;;10.88;100.00;101327.34;4919712;29;20050;-72
2022/01/02 05:58:20;;;;;;;11.15;5.50;;;;;;;10.92;100.00;101331.56;4938089;28;20472;-72
2022/01/02 06:00:45;;;;;;;13.00;5.70;;;;;;;10.74;100.00;101332.88;4940248;28;20565;-72
2022/01/02 06:03:10;;;;;;;13.40;6.15;;;;;;;10.76;100.00;101307.59;4938411;28;20049;-73
2022/01/02 06:05:35;;;;;;;13.63;5.63;;;;;;;10.64;100.00;101313.88;4939310;28;20534;-72
2022/01/02 06:08:02;;;;;;;16.83;5.97;;;;;;;10.61;100.00;101295.28;4936923;28;20755;-73
2022/01/02 06:10:27;;;;;;;12.55;6.05;;;;;;;10.74;100.00;101298.78;4915283;29;20032;-72
2022/01/02 06:12:52;;;;;;;15.57;5.78;;;;;;;10.65;100.00;101286.88;4919847;28;20056;-72
2022/01/02 06:15:18;;;;;;;13.52;5.07;;;;;;;10.69;100.00;101275.94;4921694;29;20041;-71
2022/01/02 06:17:43;;;;;;;12.18;4.15;;;;;;;10.55;100.00;101266.16;4937285;28;20497;-72
2022/01/02 06:20:08;;;;;;;12.98;5.80;;;;;;;10.56;100.00;101258.03;4940451;29;20375;-73
2022/01/02 06:22:34;;;;;;;9.65;5.03;;;;;;;10.46;100.00;101240.84;4920441;29;20092;-73
2022/01/02 06:24:59;;;;;;;14.50;4.75;;;;;;;10.63;100.00;101236.97;4938015;29;20031;-73
2022/01/02 06:27:24;;;;;;;11.13;5.15;;;;;;;10.53;100.00;101227.84;4919359;29;20055;-71
2022/01/02 06:29:50;;;;;;;11.02;3.85;;;;;;;10.57;100.00;101227.53;4940212;28;20221;-73
2022/01/02 06:32:15;;;;;;;11.55;4.43;;;;;;;10.32;100.00;101231.94;4936958;28;20075;-72
2022/01/02 06:34:40;;;;;;;11.20;4.40;;;;;;;10.38;100.00;101202.91;4938042;28;20035;-72
2022/01/02 06:37:06;;;;;;;11.75;4.57;;;;;;;10.63;100.00;101213.63;4919772;29;20106;-72
2022/01/02 06:39:31;;;;;;;23.50;5.57;;;;;;;10.52;100.00;101201.94;4938257;28;20073;-71
2022/01/02 06:41:56;;;;;;;11.27;5.65;;;;;;;10.71;100.00;101185.38;4916730;29;20069;-73
2022/01/02 06:44:22;;;;;;;13.65;5.55;;;;;;;10.69;100.00;101174.75;4921147;28;20071;-70
2022/01/02 06:46:47;;;;;;;7.80;3.95;;;;;;;10.53;100.00;101163.41;4937790;28;20058;-71
2022/01/02 06:49:12;;;;;;;14.02;6.03;;;;;;;10.64;100.00;101160.81;4943686;28;20138;-71
2022/01/02 06:51:38;;;;;;;9.57;5.40;;;;;;;10.81;100.00;101130.03;4944740;28;20382;-71
2022/01/02 06:54:03;;;;;;;9.20;4.70;;;;;;;10.97;100.00;101124.38;4926125;28;20222;-73
2022/01/02 06:56:28;;;;;;;12.13;4.90;;;;;;;10.60;100.00;101127.09;4924125;29;20371;-72
2022/01/02 06:58:54;;;;;;;12.68;4.70;;;;;;;10.53;100.00;101125.81;4930086;28;20449;-73
2022/01/02 07:01:19;;;;;;;11.90;4.72;;;;;;;10.60;100.00;101127.09;4941803;28;20118;-72
2022/01/02 07:03:44;;;;;;;8.48;5.18;;;;;;;10.64;100.00;101105.25;4944969;28;20054;-71
2022/01/02 07:06:09;;;;;;;9.52;4.93;;;;;;;10.69;100.00;101109.44;4942615;28;20157;-70
2022/01/02 07:08:35;;;;;;;10.77;4.35;;;;;;;10.48;100.00;101110.06;4943477;28;20467;-71
2022/01/02 07:11:00;;;;;;;12.93;5.50;;;;;;;10.67;100.00;101112.25;4942738;28;20392;-72
2022/01/02 07:13:25;;;;;;;13.90;5.63;;;;;;;10.61;100.00;101092.06;4941870;28;20090;-72
2022/01/02 07:15:51;;;;;;;9.00;4.03;;;;;;;10.53;100.00;101118.63;4944051;28;20050;-72
2022/01/02 07:18:16;;;;;;;8.57;4.07;;;;;;;10.46;100.00;101107.47;4943158;28;20521;-72
2022/01/02 07:20:43;;;;;;;12.45;5.40;;;;;;;10.63;100.00;101108.91;4942945;28;20035;-73
2022/01/02 07:23:08;;;;;;;11.80;5.03;;;;;;;10.78;100.00;101098.84;4943731;28;20542;-73
2022/01/02 07:25:33;;;;;;;10.10;4.43;;;;;;;10.70;100.00;101100.41;4940849;28;20039;-74
2022/01/02 07:27:59;;;;;;;11.57;4.68;;;;;;;10.55;100.00;101091.66;4941655;28;20031;-74
2022/01/02 07:30:24;;;;;;;6.72;3.75;;;;;;;10.67;100.00;101095.25;4947284;28;20077;-74
2022/01/02 07:32:49;;;;;;;8.27;4.20;;;;;;;10.65;100.00;101103.44;4942362;28;20043;-73
2022/01/02 07:35:15;;;;;;;17.27;5.60;;;;;;;10.89;100.00;101110.66;4945700;28;20498;-74
2022/01/02 07:37:40;;;;;;;11.55;4.82;;;;;;;10.69;100.00;101115.69;4940034;28;20038;-70
2022/01/02 07:40:06;;;;;;;9.27;4.55;;;;;;;10.74;100.00;101096.53;4944618;28;20035;-72
2022/01/02 07:42:32;;;;;;;11.80;4.30;;;;;;;10.69;100.00;101086.13;4945067;28;20447;-73
2022/01/02 07:44:58;;;;;;;9.02;4.55;;;;;;;10.64;100.00;101080.25;4940003;28;20039;-72
2022/01/02 07:47:23;;;;;;;11.52;4.78;;;;;;;10.54;100.00;101053.22;4937656;28;20046;-72
2022/01/02 07:49:49;;;;;;;15.25;5.25;;;;;;;10.69;100.00;101059.28;4942282;28;20035;-73
2022/01/02 07:52:14;;;;;;;10.82;5.07;;;;;;;10.93;99.55;101055.72;4943120;28;20123;-70
2022/01/02 07:54:39;;;;;;;11.40;3.95;;;;;;;10.79;98.93;101067.50;4926705;28;20035;-72
2022/01/02 07:57:05;;;;;;;9.43;4.30;;;;;;;10.80;99.02;101064.69;4940190;28;20134;-73
2022/01/02 07:59:31;;;;;;;7.03;4.45;;;;;;;10.99;96.27;101063.28;4938609;28;20058;-73
2022/01/02 08:01:56;;;;;;;7.00;4.85;;;;;;;10.67;99.12;101063.03;4921016;28;20322;-72
2022/01/02 08:04:22;;;;;;;9.38;5.13;;;;;;;10.78;98.66;101106.06;4943342;28;20042;-70
2022/01/02 08:06:47;;;;;;;8.32;4.82;;;;;;;10.68;99.50;101116.66;4937656;28;20039;-72
2022/01/02 08:09:13;;;;;;;13.32;4.97;;;;;;;10.70;100.00;101116.53;4937814;28;20417;-73
2022/01/02 08:11:38;;;;;;;14.05;4.95;;;;;;;10.45;100.00;101100.41;4939249;28;20074;-70
2022/01/02 08:14:03;;;;;;;11.20;4.43;;;;;;;10.68;100.00;101130.06;4948391;28;20110;-72
2022/01/02 08:16:29;;;;;;;11.32;4.40;;;;;;;10.46;100.00;101120.88;4938792;28;20145;-71
2022/01/02 08:18:54;;;;;;;13.00;5.65;;;;;;;10.56;100.00;101101.44;4945134;28;20110;-74
2022/01/02 08:21:19;;;;;;;8.77;4.30;;;;;;;10.60;100.00;101101.09;4937276;28;20105;-74
2022/01/02 08:23:44;;;;;;;6.40;3.75;;;;;;;10.39;100.00;101102.66;4942243;28;20468;-70
2022/01/02 08:26:10;;;;;;;13.93;5.07;;;;;;;10.56;100.00;101099.63;4938132;28;20067;-72
2022/01/02 08:28:35;;;;;;;8.43;5.03;;;;;;;10.40;100.00;101107.06;4937993;28;20037;-72
2022/01/02 08:31:01;;;;;;;8.95;4.43;;;;;;;10.52;100.00;101114.22;4935811;28;20383;-72
2022/01/02 08:33:26;;;;;;;9.80;4.78;;;;;;;10.64;100.00;101101.72;4937067;28;20039;-71
2022/01/02 08:35:51;;;;;;;7.18;4.10;;;;;;;10.79;99.57;101119.38;4933633;28;20073;-71
2022/01/02 08:38:17;;;;;;;9.43;4.32;;;;;;;10.55;100.00;101113.13;4938828;28;20102;-71
2022/01/02 08:40:42;;;;;;;5.30;3.42;;;;;;;10.45;99.70;101116.50;4937339;28;20038;-72
2022/01/02 08:43:08;;;;;;;5.55;3.08;;;;;;;10.47;100.00;101119.91;4941028;28;20138;-69
2022/01/02 08:45:35;;;;;;;4.88;3.60;;;;;;;10.76;98.29;101073.09;4941274;28;20625;-73
2022/01/02 08:48:00;;;;;;;9.75;3.75;;;;;;;10.56;100.00;101059.34;4922342;28;20035;-73
2022/01/02 08:50:27;;;;;;;8.70;3.50;;;;;;;10.31;100.00;101121.97;4938402;28;20319;-70
2022/01/02 08:52:52;;;;;;;10.05;3.85;;;;;;;10.14;100.00;101094.56;4933940;28;20382;-75
2022/01/02 08:55:17;;;;;;;7.72;3.50;;;;;;;10.08;100.00;101094.97;4938083;28;20150;-73
2022/01/02 08:57:43;;;;;;;6.40;3.30;;;;;;;10.09;100.00;101102.06;4934233;28;20046;-73
2022/01/02 09:00:09;;;;;;;9.63;3.47;;;;;;;10.33;100.00;101102.09;4938225;28;20035;-74
2022/01/02 09:02:34;;;;;;;6.60;3.85;;;;;;;10.38;100.00;101103.59;4935788;28;20030;-71
2022/01/02 09:05:00;;;;;;;7.60;3.70;;;;;;;10.28;100.00;101090.00;4936850;28;20361;-75
2022/01/02 09:07:25;;;;;;;5.32;3.47;;;;;;;10.35;100.00;101104.69;4920806;29;20127;-72
2022/01/02 09:09:50;;;;;;;5.60;3.30;;;;;;;10.40;100.00;101099.88;4901570;28;20164;-74
2022/01/02 09:12:16;;;;;;;5.25;3.83;;;;;;;10.48;99.44;101100.16;4922227;28;20036;-71
2022/01/02 09:14:42;;;;;;;6.70;3.67;;;;;;;10.49;99.89;101101.88;4941437;28;20779;-69
2022/01/02 09:17:07;;;;;;;6.18;3.92;;;;;;;10.71;98.05;101102.13;4943590;28;20081;-74
2022/01/02 09:19:32;;;;;;;5.63;3.90;;;;;;;10.53;97.67;101096.28;4942408;28;20089;-74
2022/01/02 09:21:58;;;;;;;7.05;4.18;;;;;;;10.73;96.97;101095.66;4939605;28;20356;-73
2022/01/02 09:24:23;;;;;;;5.43;3.95;;;;;;;10.79;96.86;101099.72;4940797;28;20081;-74
2022/01/02 09:26:48;;;;;;;7.15;3.67;;;;;;;10.90;95.74;101107.00;4937831;28;20158;-73
2022/01/02 09:29:14;;;;;;;7.20;4.32;;;;;;;10.93;95.34;101098.69;4939140;28;20082;-71
2022/01/02 09:31:40;;;;;;;4.97;3.58;;;;;;;11.05;94.61;101100.44;4938055;28;20268;-74
2022/01/02 09:34:05;;;;;;;6.88;4.50;;;;;;;11.21;92.90;101102.81;4937048;28;20038;-74
2022/01/02 09:36:31;;;;;;;8.10;4.80;;;;;;;11.35;92.20;101115.19;4938083;28;20031;-73
2022/01/02 09:38:57;;;;;;;10.05;4.93;;;;;;;11.40;91.91;101087.94;4940914;28;20069;-68
2022/01/02 09:41:22;;;;;;;8.48;4.88;;;;;;;12.06;89.20;101105.28;4934791;28;20090;-68
2022/01/02 09:43:48;;;;;;;8.00;4.43;;;;;;;11.86;88.27;101096.94;4940980;28;20027;-67
2022/01/02 09:46:27;;;;;;;5.85;3.95;;;;;;;11.70;89.23;101098.16;4933323;28;20884;-67
2022/01/02 09:48:53;;;;;;;8.05;4.38;;;;;;;11.70;89.07;101106.25;4938857;28;20611;-68
2022/01/02 09:51:24;;;;;;;7.10;3.92;;;;;;;11.52;90.92;101105.00;4938947;28;20447;-69
2022/01/02 09:53:51;;;;;;;8.10;4.60;;;;;;;11.66;89.85;101114.66;4940083;28;20168;-68
2022/01/02 09:56:17;;;;;;;9.52;4.60;;;;;;;11.52;91.05;101105.00;4930923;28;20031;-68
2022/01/02 09:58:44;;;;;;;9.57;5.28;;;;;;;11.63;90.06;101096.09;4925607;28;20292;-67
2022/01/02 10:01:17;;;;;;;7.35;3.90;;;;;;;11.85;89.37;101104.19;4931429;28;20078;-69
2022/01/02 10:03:44;;;;;;;7.68;4.57;;;;;;;11.96;88.46;101107.81;4914371;29;20169;-67
2022/01/02 10:06:09;;;;;;;12.57;6.15;;;;;;;12.50;86.03;101102.66;4935719;28;20062;-68
2022/01/02 10:08:35;;;;;;;13.73;5.68;;;;;;;12.92;84.56;101092.03;4934565;28;20343;-67
2022/01/02 10:11:04;;;;;;;11.98;5.32;;;;;;;13.20;82.42;101098.63;4920158;28;20042;-68
2022/01/02 10:13:50;;;;;;;13.93;6.00;;;;;;;13.43;82.20;101103.09;4935775;28;20031;-67
2022/01/02 10:16:41;;;;;;;7.30;4.78;;;;;;;13.59;81.20;101102.63;4936325;28;20049;-68
2022/01/02 10:19:21;;;;;;;6.70;4.18;;;;;;;13.40;82.73;101106.84;4935468;28;20031;-73
2022/01/02 10:22:00;;;;;;;7.85;5.30;;;;;;;13.11;83.62;101104.78;4935283;28;20063;-67
2022/01/02 10:24:27;;;;;;;9.38;4.95;;;;;;;13.01;83.13;101115.50;4916773;29;20511;-68
2022/01/02 10:27:14;;;;;;;9.32;5.10;;;;;;;12.68;85.76;101100.31;4936734;28;20035;-70
2022/01/02 10:29:54;;;;;;;12.70;5.72;;;;;;;12.71;85.04;101098.19;4938446;28;20030;-71
2022/01/02 10:32:37;;;;;;;11.88;5.68;;;;;;;12.52;85.44;101098.88;4931331;28;20034;-68
2022/01/02 10:35:21;;;;;;;13.90;5.65;;;;;;;12.55;85.53;101082.47;4938702;28;20046;-68
2022/01/02 10:37:51;;;;;;;11.00;5.60;;;;;;;12.21;87.00;101095.13;4935323;28;20028;-67
2022/01/02 10:40:23;;;;;;;9.70;5.45;;;;;;;12.40;85.85;101083.72;4937805;28;20054;-69
2022/01/02 10:42:48;;;;;;;13.90;5.35;;;;;;;12.14;86.83;101090.25;4935990;28;20317;-69
2022/01/02 10:45:39;;;;;;;7.30;4.82;;;;;;;12.11;87.61;101079.75;4941425;28;20493;-68
2022/01/02 10:48:09;;;;;;;7.05;4.20;;;;;;;12.32;86.83;101067.34;4939438;28;20153;-67
2022/01/02 10:50:35;;;;;;;10.43;4.88;;;;;;;12.33;85.91;101078.00;4940331;28;20486;-69
2022/01/02 10:53:12;;;;;;;11.75;5.50;;;;;;;12.39;85.50;101060.47;4921409;28;20070;-68
2022/01/02 10:55:38;;;;;;;11.52;4.78;;;;;;;12.56;86.40;101080.63;4937210;28;20054;-68
2022/01/02 10:58:07;;;;;;;7.70;4.60;;;;;;;12.41;86.35;101074.66;4927418;28;20768;-70
2022/01/02 11:00:32;;;;;;;11.57;5.72;;;;;;;12.39;85.47;101077.50;4937060;28;20034;-68
2022/01/02 11:02:58;;;;;;;11.48;4.70;;;;;;;12.39;85.82;101074.81;4943672;28;20391;-69
2022/01/02 11:05:27;;;;;;;11.20;5.07;;;;;;;12.38;86.03;101083.00;4922441;28;20032;-67
2022/01/02 11:07:58;;;;;;;8.50;4.18;;;;;;;12.27;86.36;101079.34;4941190;28;20023;-70
2022/01/02 11:10:24;;;;;;;11.65;5.07;;;;;;;12.30;86.22;101081.81;4936244;28;20066;-68
2022/01/02 11:12:52;;;;;;;11.27;5.07;;;;;;;12.38;87.19;101083.00;4937690;28;20043;-68
2022/01/02 11:15:20;;;;;;;14.45;5.40;;;;;;;12.26;86.51;101068.69;4940100;28;20034;-68
2022/01/02 11:17:46;;;;;;;10.05;4.65;;;;;;;12.27;87.00;101091.94;4941196;28;20125;-67
2022/01/02 11:20:20;;;;;;;7.43;4.50;;;;;;;12.23;88.17;101095.84;4937598;28;20452;-67
2022/01/02 11:23:23;;;;;;;12.80;5.57;;;;;;;12.23;88.21;101099.44;4937780;28;20020;-69